Time;durP1;ratioP1;P1;durP2;ratioP2;P2;SDS_P1;SDS_P2;PMS_P1;PMS_P2;Temp;Humidity;BMP_temperature;BMP_pressure;BME280_temperature;BME280_humidity;BME280_pressure;Samples;Min_cycle;Max_cycle;Signal;HPM_P1;HPM_P2
2021/07/17 00:01:59;;;;;;;0.35;0.20;;;;;;;14.38;100.00;101236.06;5073577;28;20075;-56
2021/07/17 00:05:09;;;;;;;2.15;0.20;;;;;;;14.42;100.00;101238.75;5073848;28;20060;-56
2021/07/17 00:08:12;;;;;;;0.40;0.35;;;;;;;14.36;100.00;101240.59;5072549;28;20059;-56
2021/07/17 00:11:16;;;;;;;0.30;0.10;;;;;;;14.31;100.00;101244.78;5072888;28;20529;-56
2021/07/17 00:14:20;;;;;;;2.05;0.20;;;;;;;14.25;100.00;101248.69;5053053;28;20052;-56
2021/07/17 00:17:24;;;;;;;0.68;0.10;;;;;;;14.16;100.00;101245.88;5053877;28;20048;-56
2021/07/17 00:20:27;;;;;;;0.32;0.20;;;;;;;14.10;100.00;101250.50;5053587;28;20055;-56
2021/07/17 00:23:31;;;;;;;0.52;0.30;;;;;;;14.04;100.00;101253.16;5054089;28;20052;-56
2021/07/17 00:26:34;;;;;;;1.02;0.40;;;;;;;14.01;100.00;101250.53;5053704;28;20044;-56
2021/07/17 00:29:38;;;;;;;2.67;0.20;;;;;;;14.02;100.00;101254.88;5054146;28;20436;-56
2021/07/17 00:32:42;;;;;;;1.33;0.17;;;;;;;13.90;100.00;101253.78;5053157;28;20119;-56
2021/07/17 00:35:46;;;;;;;1.42;0.20;;;;;;;13.87;100.00;101254.72;5052766;28;20056;-56
2021/07/17 00:38:49;;;;;;;2.05;0.40;;;;;;;13.86;100.00;101257.97;5052716;28;20056;-56
2021/07/17 00:41:53;;;;;;;1.10;0.20;;;;;;;13.75;100.00;101261.22;5052608;28;20112;-56
2021/07/17 00:44:57;;;;;;;2.13;0.25;;;;;;;13.61;100.00;101253.41;5052675;28;20056;-56
2021/07/17 00:48:01;;;;;;;2.50;0.35;;;;;;;13.55;100.00;101256.03;5051767;28;20059;-56
2021/07/17 00:51:05;;;;;;;1.63;0.45;;;;;;;13.57;100.00;101256.34;5052454;28;20067;-56
2021/07/17 00:54:12;;;;;;;1.33;0.47;;;;;;;13.57;100.00;101252.78;5052624;28;20068;-56
2021/07/17 00:57:17;;;;;;;3.60;0.47;;;;;;;13.55;100.00;101250.44;5052144;28;20052;-55
2021/07/17 01:00:21;;;;;;;1.30;0.30;;;;;;;13.52;100.00;101256.97;5050820;28;20056;-55
2021/07/17 01:03:28;;;;;;;0.82;0.13;;;;;;;13.45;100.00;101253.66;5052333;28;20437;-56
2021/07/17 01:06:32;;;;;;;0.75;0.28;;;;;;;13.34;100.00;101259.69;5052589;28;20056;-56
2021/07/17 01:09:36;;;;;;;1.35;0.30;;;;;;;13.35;100.00;101261.25;5052430;28;20509;-56
2021/07/17 01:12:39;;;;;;;2.38;0.45;;;;;;;13.20;100.00;101257.47;5061604;28;20416;-55
2021/07/17 01:15:43;;;;;;;0.43;0.30;;;;;;;13.16;100.00;101262.41;5072036;28;20075;-56
2021/07/17 01:18:47;;;;;;;2.63;0.20;;;;;;;13.13;100.00;101257.72;5072372;28;20055;-55
2021/07/17 01:21:54;;;;;;;0.45;0.10;;;;;;;13.14;100.00;101252.91;5072012;28;20388;-55
2021/07/17 01:24:58;;;;;;;0.40;0.20;;;;;;;13.20;100.00;101251.09;5072262;28;20512;-56
2021/07/17 01:28:02;;;;;;;0.75;0.40;;;;;;;13.11;100.00;101254.63;5071877;28;20060;-56
2021/07/17 01:31:07;;;;;;;1.13;0.28;;;;;;;13.12;100.00;101256.19;5071801;28;20059;-56
2021/07/17 01:34:10;;;;;;;0.80;0.20;;;;;;;13.16;100.00;101251.22;5071917;28;20523;-56
2021/07/17 01:37:15;;;;;;;2.15;0.22;;;;;;;13.12;100.00;101250.59;5071614;28;20047;-56
2021/07/17 01:40:19;;;;;;;0.40;0.35;;;;;;;13.09;100.00;101259.88;5071279;28;20063;-55
2021/07/17 01:43:23;;;;;;;1.05;0.20;;;;;;;13.05;100.00;101256.47;5071868;28;20400;-55
2021/07/17 01:46:27;;;;;;;2.13;0.20;;;;;;;12.93;100.00;101254.47;5071946;28;20051;-56
2021/07/17 01:49:31;;;;;;;0.47;0.43;;;;;;;12.84;100.00;101254.47;5071810;28;20063;-55
2021/07/17 01:52:34;;;;;;;0.73;0.35;;;;;;;12.84;100.00;101249.63;5071463;28;20063;-56
2021/07/17 01:55:38;;;;;;;0.30;0.13;;;;;;;12.81;100.00;101258.16;5071385;28;20063;-56
2021/07/17 01:58:42;;;;;;;0.10;0.10;;;;;;;12.80;100.00;101256.56;5071287;28;20059;-56
2021/07/17 02:01:46;;;;;;;1.95;0.20;;;;;;;12.78;100.00;101264.66;5071190;28;20056;-56
2021/07/17 02:04:50;;;;;;;8.60;0.30;;;;;;;12.72;100.00;101258.88;5071236;28;20063;-56
2021/07/17 02:07:54;;;;;;;1.17;0.30;;;;;;;12.75;100.00;101260.78;5071249;28;20075;-56
2021/07/17 02:10:57;;;;;;;1.80;0.28;;;;;;;12.73;100.00;101251.28;5071247;28;20048;-56
2021/07/17 02:14:00;;;;;;;0.45;0.20;;;;;;;12.72;100.00;101260.88;5050778;28;20413;-56
2021/07/17 02:17:05;;;;;;;1.52;0.50;;;;;;;12.66;100.00;101257.91;5050840;28;20147;-55
2021/07/17 02:20:09;;;;;;;0.85;0.35;;;;;;;12.67;100.00;101264.25;5050754;28;20086;-56
2021/07/17 02:23:12;;;;;;;1.38;0.20;;;;;;;12.62;100.00;101254.47;5051122;28;20076;-56
2021/07/17 02:26:16;;;;;;;1.65;0.73;;;;;;;12.57;100.00;101257.06;5051153;28;20056;-55
2021/07/17 02:29:19;;;;;;;1.50;0.57;;;;;;;12.55;100.00;101263.09;5050570;28;20064;-56
2021/07/17 02:32:22;;;;;;;0.90;0.38;;;;;;;12.55;100.00;101251.94;5050871;28;20070;-56
2021/07/17 02:35:26;;;;;;;0.35;0.20;;;;;;;12.56;100.00;101252.72;5050881;28;20048;-56
2021/07/17 02:38:31;;;;;;;3.05;0.35;;;;;;;12.49;100.00;101253.75;5050795;28;20532;-56
2021/07/17 02:41:36;;;;;;;0.98;0.40;;;;;;;12.45;100.00;101257.91;5051214;28;20060;-56
2021/07/17 02:44:39;;;;;;;1.45;0.52;;;;;;;12.48;100.00;101254.19;5050490;28;20056;-56
2021/07/17 02:47:43;;;;;;;1.35;0.40;;;;;;;12.45;100.00;101252.31;5051099;28;20056;-56
2021/07/17 02:50:46;;;;;;;0.75;0.30;;;;;;;12.48;100.00;101251.41;5051020;28;20056;-56
2021/07/17 02:53:50;;;;;;;0.25;0.17;;;;;;;12.45;100.00;101252.31;5050859;28;20060;-56
2021/07/17 02:56:53;;;;;;;1.08;0.30;;;;;;;12.45;100.00;101241.16;5049819;28;20056;-56
2021/07/17 02:59:57;;;;;;;0.30;0.20;;;;;;;12.43;100.00;101254.78;5051150;28;20072;-56
2021/07/17 03:03:02;;;;;;;2.67;0.50;;;;;;;12.41;100.00;101246.09;5050714;28;20056;-56
2021/07/17 03:06:05;;;;;;;1.88;0.45;;;;;;;12.36;100.00;101249.47;5050900;28;20405;-56
2021/07/17 03:09:08;;;;;;;1.00;0.45;;;;;;;12.23;100.00;101251.53;5050307;28;20071;-56
2021/07/17 03:12:12;;;;;;;4.68;0.55;;;;;;;12.24;100.00;101250.28;5055871;28;20060;-56
2021/07/17 03:15:16;;;;;;;2.13;0.55;;;;;;;12.15;100.00;101246.19;5067077;28;20051;-56
2021/07/17 03:18:19;;;;;;;2.15;0.50;;;;;;;12.16;100.00;101244.97;5070178;28;20067;-55
2021/07/17 03:21:23;;;;;;;0.50;0.30;;;;;;;12.16;100.00;101242.16;5070554;28;20059;-56
2021/07/17 03:24:26;;;;;;;1.85;0.68;;;;;;;12.24;100.00;101247.47;5072250;28;20055;-56
2021/07/17 03:27:31;;;;;;;1.02;0.45;;;;;;;12.15;100.00;101245.38;5074304;28;20048;-56
2021/07/17 03:30:34;;;;;;;0.45;0.20;;;;;;;12.09;100.00;101245.19;5074465;28;20075;-56
2021/07/17 03:33:38;;;;;;;0.68;0.30;;;;;;;12.11;100.00;101245.53;5074463;28;20067;-56
2021/07/17 03:36:42;;;;;;;3.15;0.30;;;;;;;12.17;100.00;101254.13;5074268;28;20055;-55
2021/07/17 03:39:46;;;;;;;2.28;0.30;;;;;;;12.13;100.00;101250.66;5073681;28;20063;-55
2021/07/17 03:42:49;;;;;;;0.88;0.30;;;;;;;12.08;100.00;101254.78;5074389;28;20119;-56
2021/07/17 03:45:53;;;;;;;1.60;0.63;;;;;;;12.01;100.00;101252.28;5073807;28;20385;-55
2021/07/17 03:48:57;;;;;;;1.30;0.88;;;;;;;11.99;100.00;101251.94;5073924;28;20059;-56
2021/07/17 03:52:01;;;;;;;0.98;0.65;;;;;;;11.92;100.00;101257.75;5073929;28;20536;-56
2021/07/17 03:55:05;;;;;;;1.58;0.80;;;;;;;11.91;100.00;101249.84;5073904;28;20052;-55
2021/07/17 03:58:09;;;;;;;0.60;0.45;;;;;;;11.91;100.00;101253.41;5073817;28;20440;-55
2021/07/17 04:01:12;;;;;;;3.03;0.63;;;;;;;11.90;100.00;101251.84;5073655;28;20695;-55
2021/07/17 04:04:15;;;;;;;1.02;0.40;;;;;;;11.88;100.00;101247.94;5066904;28;20056;-55
2021/07/17 04:07:19;;;;;;;0.40;0.20;;;;;;;11.85;100.00;101249.63;5073019;28;20056;-55
2021/07/17 04:10:23;;;;;;;0.93;0.40;;;;;;;11.85;100.00;101243.25;5073753;28;20067;-55
2021/07/17 04:13:27;;;;;;;2.15;0.52;;;;;;;11.82;100.00;101239.38;5072604;28;20397;-55
2021/07/17 04:16:30;;;;;;;1.95;0.63;;;;;;;11.80;100.00;101236.22;5073429;28;20059;-55
2021/07/17 04:19:33;;;;;;;1.33;0.50;;;;;;;11.80;100.00;101238.25;5073121;28;20052;-55
2021/07/17 04:22:37;;;;;;;1.08;0.43;;;;;;;11.85;100.00;101237.66;5073059;28;20064;-56
2021/07/17 04:25:41;;;;;;;0.73;0.40;;;;;;;11.82;100.00;101239.38;5073010;28;20052;-55
2021/07/17 04:28:44;;;;;;;0.80;0.20;;;;;;;11.85;100.00;101238.47;5072760;28;20055;-56
2021/07/17 04:31:47;;;;;;;0.50;0.45;;;;;;;11.79;100.00;101245.84;5072785;28;20051;-56
2021/07/17 04:34:51;;;;;;;1.45;0.73;;;;;;;11.83;100.00;101240.94;5072737;28;20070;-55
2021/07/17 04:37:54;;;;;;;2.35;0.52;;;;;;;11.85;100.00;101244.03;5072377;28;20067;-55
2021/07/17 04:40:57;;;;;;;0.10;0.10;;;;;;;11.83;100.00;101240.13;5073012;28;20393;-56
2021/07/17 04:44:01;;;;;;;1.13;0.50;;;;;;;11.84;100.00;101242.50;5072677;28;20059;-55
2021/07/17 04:47:04;;;;;;;2.17;0.32;;;;;;;11.84;100.00;101242.50;5073170;28;20067;-55
2021/07/17 04:50:08;;;;;;;1.83;0.40;;;;;;;11.88;100.00;101243.16;5064409;28;20068;-55
2021/07/17 04:53:12;;;;;;;1.83;1.00;;;;;;;11.97;100.00;101251.63;5061132;28;20095;-55
2021/07/17 04:56:15;;;;;;;0.65;0.20;;;;;;;11.97;100.00;101243.25;5052642;28;20406;-55
2021/07/17 04:59:19;;;;;;;3.20;0.38;;;;;;;11.96;100.00;101240.88;5064048;28;20067;-55
2021/07/17 05:02:22;;;;;;;0.30;0.22;;;;;;;12.03;100.00;101244.22;5053497;28;20060;-55
2021/07/17 05:05:26;;;;;;;0.20;0.10;;;;;;;12.04;100.00;101251.34;5063212;28;20067;-55
2021/07/17 05:08:30;;;;;;;0.85;0.52;;;;;;;12.03;100.00;101251.81;5054200;28;20056;-56
2021/07/17 05:11:34;;;;;;;1.08;0.25;;;;;;;12.03;100.00;101251.81;5062011;28;20055;-55
2021/07/17 05:14:38;;;;;;;1.38;0.20;;;;;;;12.12;100.00;101241.53;5052477;28;20060;-55
2021/07/17 05:17:42;;;;;;;0.90;0.20;;;;;;;12.21;100.00;101243.59;5052183;28;20056;-55
2021/07/17 05:20:45;;;;;;;2.25;0.30;;;;;;;12.28;100.00;101242.56;5052213;28;20075;-55
2021/07/17 05:23:48;;;;;;;11.77;0.75;;;;;;;12.34;100.00;101244.34;5052452;28;20056;-55
2021/07/17 05:26:52;;;;;;;2.30;0.73;;;;;;;12.46;100.00;101242.69;5052163;28;20052;-55
2021/07/17 05:29:55;;;;;;;0.63;0.40;;;;;;;12.49;100.00;101241.78;5049336;28;20068;-55
2021/07/17 05:32:58;;;;;;;0.52;0.17;;;;;;;12.53;100.00;101248.03;5052010;28;20413;-55
2021/07/17 05:36:02;;;;;;;0.52;0.35;;;;;;;12.57;100.00;101254.25;5051933;28;20519;-55
2021/07/17 05:39:05;;;;;;;0.85;0.30;;;;;;;12.63;100.00;101247.63;5051725;28;20060;-55
2021/07/17 05:42:08;;;;;;;0.40;0.40;;;;;;;12.67;100.00;101244.69;5051702;28;20060;-56
2021/07/17 05:45:12;;;;;;;0.65;0.45;;;;;;;12.74;100.00;101248.00;5051514;28;20071;-55
2021/07/17 05:48:15;;;;;;;3.05;0.77;;;;;;;12.87;100.00;101245.13;5051188;28;20064;-55
2021/07/17 05:51:19;;;;;;;6.80;0.57;;;;;;;12.94;100.00;101239.28;5051098;28;20051;-55
2021/07/17 05:54:23;;;;;;;0.38;0.17;;;;;;;13.01;100.00;101244.59;5051713;28;20051;-55
2021/07/17 05:57:26;;;;;;;0.88;0.50;;;;;;;13.05;100.00;101239.69;5051529;28;20060;-55
2021/07/17 06:00:30;;;;;;;1.90;0.82;;;;;;;13.18;100.00;101248.75;5051591;28;20533;-55
2021/07/17 06:03:34;;;;;;;1.40;0.52;;;;;;;13.30;100.00;101241.47;5051484;28;20047;-55
2021/07/17 06:06:37;;;;;;;0.57;0.55;;;;;;;13.45;100.00;101243.25;5051534;28;20060;-55
2021/07/17 06:09:41;;;;;;;1.70;0.45;;;;;;;13.59;100.00;101245.47;5051180;28;20060;-56
2021/07/17 06:12:44;;;;;;;0.20;0.20;;;;;;;13.73;100.00;101248.94;5051342;28;20056;-56
2021/07/17 06:15:48;;;;;;;0.90;0.40;;;;;;;13.87;100.00;101243.50;5051077;28;20072;-54
2021/07/17 06:18:51;;;;;;;4.07;0.57;;;;;;;14.00;100.00;101246.94;5063136;28;20137;-55
2021/07/17 06:21:55;;;;;;;4.10;0.68;;;;;;;14.12;100.00;101248.06;5062573;28;20067;-55
2021/07/17 06:24:59;;;;;;;1.00;0.57;;;;;;;14.20;100.00;101255.69;5059597;28;20064;-55
2021/07/17 06:28:03;;;;;;;2.38;0.55;;;;;;;14.26;100.00;101255.81;5051030;28;20064;-55
2021/07/17 06:31:06;;;;;;;2.05;0.60;;;;;;;14.35;100.00;101255.88;5059478;28;20508;-55
2021/07/17 06:34:09;;;;;;;3.08;0.57;;;;;;;14.48;100.00;101267.69;5051088;28;20059;-55
2021/07/17 06:37:13;;;;;;;2.20;0.52;;;;;;;14.70;100.00;101278.72;5072640;28;20064;-55
2021/07/17 06:40:17;;;;;;;0.68;0.40;;;;;;;14.79;100.00;101271.06;5059149;28;20056;-55
2021/07/17 06:43:20;;;;;;;4.80;0.90;;;;;;;14.85;100.00;101283.22;5058771;28;20075;-55
2021/07/17 06:46:24;;;;;;;2.25;0.45;;;;;;;15.03;100.00;101285.19;5059435;28;20512;-55
2021/07/17 06:49:28;;;;;;;1.80;0.55;;;;;;;15.12;100.00;101285.97;5052261;28;20060;-55
2021/07/17 06:52:31;;;;;;;1.83;0.47;;;;;;;15.26;100.00;101283.72;5060305;28;20056;-55
2021/07/17 06:55:35;;;;;;;2.05;0.60;;;;;;;15.39;100.00;101287.13;5052963;28;20048;-55
2021/07/17 06:58:38;;;;;;;0.70;0.45;;;;;;;15.63;100.00;101294.38;5059537;28;20048;-55
2021/07/17 07:01:42;;;;;;;2.80;0.63;;;;;;;16.10;100.00;101290.81;5057864;28;20063;-55
2021/07/17 07:04:45;;;;;;;3.92;0.30;;;;;;;16.35;100.00;101298.72;5073963;28;20521;-55
2021/07/17 07:07:49;;;;;;;2.08;0.52;;;;;;;16.25;100.00;101296.47;5054783;28;20060;-55
2021/07/17 07:10:53;;;;;;;1.05;0.15;;;;;;;16.26;100.00;101304.44;5066467;28;20059;-56
2021/07/17 07:13:57;;;;;;;1.45;0.22;;;;;;;16.35;100.00;101303.59;5068513;28;20096;-56
2021/07/17 07:17:00;;;;;;;2.47;0.35;;;;;;;16.43;100.00;101299.94;5068581;28;20060;-53
2021/07/17 07:20:09;;;;;;;3.38;0.30;;;;;;;16.52;100.00;101305.50;5074313;28;20059;-53
2021/07/17 07:23:13;;;;;;;1.52;0.63;;;;;;;16.70;100.00;101303.81;5074644;28;20523;-53
2021/07/17 07:26:16;;;;;;;1.00;0.20;;;;;;;16.77;100.00;101309.03;5074154;28;20048;-53
2021/07/17 07:29:20;;;;;;;1.38;0.57;;;;;;;16.83;100.00;101307.13;5074040;28;20075;-53
2021/07/17 07:32:24;;;;;;;2.08;0.45;;;;;;;17.03;100.00;101305.19;5074488;28;20527;-53
2021/07/17 07:35:27;;;;;;;1.73;0.68;;;;;;;17.18;100.00;101305.94;5074370;28;20055;-53
2021/07/17 07:38:30;;;;;;;3.60;0.30;;;;;;;17.29;100.00;101319.44;5073928;28;20064;-53
2021/07/17 07:41:34;;;;;;;1.38;0.40;;;;;;;17.40;100.00;101317.59;5074111;28;20051;-53
2021/07/17 07:44:38;;;;;;;0.60;0.30;;;;;;;17.50;100.00;101304.19;5073824;28;20489;-53
2021/07/17 07:47:41;;;;;;;1.20;0.43;;;;;;;17.61;100.00;101315.63;5074121;28;20115;-53
2021/07/17 07:50:45;;;;;;;1.13;0.65;;;;;;;17.74;100.00;101307.63;5065782;28;20059;-53
2021/07/17 07:53:49;;;;;;;0.80;0.30;;;;;;;17.90;100.00;101304.28;5066792;28;20060;-54
2021/07/17 07:56:52;;;;;;;3.05;0.40;;;;;;;18.03;100.00;101312.41;5066676;28;20400;-54
2021/07/17 07:59:56;;;;;;;0.77;0.28;;;;;;;18.21;100.00;101297.25;5067160;28;20052;-54
2021/07/17 08:02:59;;;;;;;1.05;0.40;;;;;;;18.26;100.00;101302.22;5067420;28;20059;-54
2021/07/17 08:06:02;;;;;;;2.15;0.63;;;;;;;18.30;100.00;101300.69;5068266;28;20059;-54
2021/07/17 08:09:06;;;;;;;0.82;0.30;;;;;;;18.41;100.00;101298.03;5073331;28;20056;-54
2021/07/17 08:12:09;;;;;;;4.63;0.43;;;;;;;18.55;100.00;101291.56;5073511;28;20056;-54
2021/07/17 08:15:13;;;;;;;0.93;0.60;;;;;;;18.77;100.00;101291.03;5061001;28;20516;-54
2021/07/17 08:18:17;;;;;;;7.22;1.55;;;;;;;19.02;100.00;101295.09;5061517;28;20055;-53
2021/07/17 08:21:22;;;;;;;4.05;0.38;;;;;;;19.42;100.00;101292.94;5064235;28;20064;-54
2021/07/17 08:24:26;;;;;;;1.35;0.30;;;;;;;19.62;100.00;101287.16;5054869;28;20123;-54
2021/07/17 08:27:29;;;;;;;3.55;0.30;;;;;;;19.79;100.00;101289.31;5063080;28;20076;-54
2021/07/17 08:30:35;;;;;;;0.17;0.00;;;;;;;19.96;100.00;101287.34;5061117;28;20381;-53
2021/07/17 08:33:38;;;;;;;1.83;0.30;;;;;;;20.18;100.00;101278.97;5061399;28;20056;-53
2021/07/17 08:36:42;;;;;;;0.75;0.10;;;;;;;20.36;100.00;101278.56;5056622;28;20072;-56
2021/07/17 08:39:45;;;;;;;3.10;0.20;;;;;;;20.63;100.00;101274.25;5061208;28;20048;-54
2021/07/17 08:42:51;;;;;;;2.17;0.20;;;;;;;20.85;100.00;101272.25;5052763;28;20060;-54
2021/07/17 08:45:55;;;;;;;0.90;0.10;;;;;;;21.08;100.00;101265.34;5064639;28;20056;-54
2021/07/17 08:48:59;;;;;;;5.03;0.10;;;;;;;21.28;100.00;101261.47;5061406;28;20071;-54
2021/07/17 08:52:03;;;;;;;3.85;0.20;;;;;;;21.56;100.00;101250.09;5052497;28;20051;-54
2021/07/17 08:55:08;;;;;;;2.83;0.10;;;;;;;21.74;100.00;101250.31;5064691;28;20056;-55
2021/07/17 08:58:12;;;;;;;2.35;0.20;;;;;;;21.89;100.00;101244.38;5060952;28;20055;-54
2021/07/17 09:01:16;;;;;;;0.35;0.13;;;;;;;22.05;100.00;101240.69;5052869;28;20060;-54
2021/07/17 09:04:26;;;;;;;0.75;0.10;;;;;;;22.13;100.00;101233.22;5062815;28;20072;-54
2021/07/17 09:07:29;;;;;;;4.25;0.47;;;;;;;22.50;100.00;101229.91;5054154;28;20072;-54
2021/07/17 09:10:41;;;;;;;0.40;0.10;;;;;;;22.76;100.00;101233.09;5062181;28;20059;-54
2021/07/17 09:13:45;;;;;;;5.03;0.28;;;;;;;22.92;100.00;101231.44;5052495;28;20060;-54
2021/07/17 09:17:01;;;;;;;0.32;0.05;;;;;;;23.19;100.00;101231.22;5052499;28;20059;-53
2021/07/17 09:20:05;;;;;;;1.02;0.20;;;;;;;23.26;100.00;101221.31;5052033;28;20056;-54
2021/07/17 09:23:09;;;;;;;1.48;0.20;;;;;;;23.38;100.00;101224.88;5051235;28;20390;-54
2021/07/17 09:26:22;;;;;;;0.30;0.10;;;;;;;23.46;100.00;101223.75;5052270;28;20076;-54
2021/07/17 09:29:37;;;;;;;3.33;0.30;;;;;;;23.53;100.00;101225.22;5051310;28;20052;-53
2021/07/17 09:32:58;;;;;;;3.22;0.10;;;;;;;23.49;100.00;101219.84;5052111;28;20056;-53
2021/07/17 09:36:02;;;;;;;1.75;0.52;;;;;;;23.59;100.00;101232.41;5051575;28;20048;-53
2021/07/17 09:39:15;;;;;;;0.28;0.10;;;;;;;23.69;100.00;101222.19;5051793;28;20063;-53
2021/07/17 09:42:20;;;;;;;1.88;0.10;;;;;;;23.78;100.00;101221.84;5051315;28;20063;-53
2021/07/17 09:45:37;;;;;;;0.55;0.05;;;;;;;23.87;100.00;101224.31;5051779;28;20075;-53
2021/07/17 09:48:46;;;;;;;0.43;0.17;;;;;;;23.97;100.00;101222.63;5050896;28;20059;-53
2021/07/17 09:52:09;;;;;;;1.40;0.27;;;;;;;24.17;100.00;101224.22;5061816;28;20056;-53
2021/07/17 09:55:16;;;;;;;0.43;0.10;;;;;;;24.26;100.00;101214.53;5051471;28;20051;-54
2021/07/17 09:58:19;;;;;;;0.95;0.10;;;;;;;24.28;100.00;101218.38;5050946;28;20052;-53
2021/07/17 10:01:26;;;;;;;0.20;0.10;;;;;;;24.28;100.00;101223.34;5050727;28;20064;-55
2021/07/17 10:04:29;;;;;;;1.85;0.25;;;;;;;24.40;100.00;101221.84;5050566;28;20409;-54
2021/07/17 10:07:33;;;;;;;1.60;0.10;;;;;;;24.49;100.00;101218.63;5051183;28;20056;-53
2021/07/17 10:10:37;;;;;;;0.55;0.13;;;;;;;24.55;100.00;101214.38;5051469;28;20067;-53
2021/07/17 10:13:40;;;;;;;6.25;0.10;;;;;;;24.60;100.00;101212.78;5054618;28;20086;-53
2021/07/17 10:16:47;;;;;;;0.32;0.00;;;;;;;24.59;100.00;101208.38;5059703;28;20405;-54
2021/07/17 10:19:51;;;;;;;0.10;0.00;;;;;;;24.53;100.00;101202.75;5051075;28;20453;-53
2021/07/17 10:22:55;;;;;;;2.97;0.63;;;;;;;24.62;100.00;101207.28;5062847;28;20079;-53
2021/07/17 10:26:00;;;;;;;0.93;0.25;;;;;;;24.73;100.00;101207.88;5059249;28;20055;-53
2021/07/17 10:29:06;;;;;;;0.68;0.00;;;;;;;24.96;100.00;101199.78;5051022;28;20389;-53
2021/07/17 10:32:09;;;;;;;4.13;0.20;;;;;;;25.09;100.00;101210.44;5058220;28;20060;-53
2021/07/17 10:35:13;;;;;;;0.52;0.10;;;;;;;25.05;100.00;101202.22;5058681;28;20401;-53
2021/07/17 10:38:19;;;;;;;3.53;0.20;;;;;;;25.17;100.00;101203.53;5061971;28;20056;-53
2021/07/17 10:41:24;;;;;;;1.17;0.40;;;;;;;25.31;100.00;101198.66;5050918;28;20067;-53
2021/07/17 10:45:00;;;;;;;2.80;0.10;;;;;;;25.38;100.00;101195.91;5061147;28;20056;-53
2021/07/17 10:48:22;;;;;;;2.95;0.43;;;;;;;25.43;100.00;101189.34;5050941;28;20059;-53
2021/07/17 10:51:30;;;;;;;0.80;0.10;;;;;;;25.39;100.00;101188.88;5060719;28;20511;-53
2021/07/17 10:54:34;;;;;;;1.05;0.17;;;;;;;25.46;100.00;101181.78;5059359;28;20508;-53
2021/07/17 10:57:37;;;;;;;3.80;0.03;;;;;;;25.58;100.00;101189.59;5053568;28;20068;-53
2021/07/17 11:00:41;;;;;;;1.85;0.10;;;;;;;25.71;100.00;101190.91;5059484;28;20056;-53
2021/07/17 11:03:45;;;;;;;0.52;0.15;;;;;;;25.72;100.00;101192.44;5050681;28;20049;-53
2021/07/17 11:06:49;;;;;;;7.05;1.00;;;;;;;25.75;100.00;101191.34;5043651;28;20060;-53
2021/07/17 11:09:54;;;;;;;0.20;0.10;;;;;;;25.91;100.00;101187.38;5050713;28;20067;-54
2021/07/17 11:12:59;;;;;;;0.45;0.20;;;;;;;25.97;100.00;101190.88;5061949;28;20388;-53
2021/07/17 11:16:03;;;;;;;0.30;0.10;;;;;;;26.02;100.00;101192.84;5070558;28;20063;-53
2021/07/17 11:19:22;;;;;;;4.75;0.20;;;;;;;26.02;100.00;101182.19;5070603;28;20504;-53
2021/07/17 11:22:28;;;;;;;0.77;0.10;;;;;;;26.14;100.00;101179.91;5070122;28;20064;-53
2021/07/17 11:25:33;;;;;;;0.73;0.00;;;;;;;26.22;100.00;101183.59;5081031;28;20483;-53
2021/07/17 11:28:56;;;;;;;0.45;0.10;;;;;;;26.32;100.00;101184.66;5069952;28;20064;-54
2021/07/17 11:32:06;;;;;;;0.60;0.10;;;;;;;26.41;100.00;101178.50;5056310;28;20516;-54
2021/07/17 11:35:24;;;;;;;1.75;0.20;;;;;;;26.53;100.00;101173.28;5047878;28;20053;-54
2021/07/17 11:38:28;;;;;;;1.77;0.10;;;;;;;26.68;100.00;101170.59;5041145;28;20048;-54
2021/07/17 11:41:33;;;;;;;0.93;0.10;;;;;;;26.53;100.00;101168.31;5039708;28;20516;-54
2021/07/17 11:44:39;;;;;;;4.63;0.10;;;;;;;26.32;100.00;101176.09;5049880;28;20056;-53
2021/07/17 11:47:43;;;;;;;0.40;0.17;;;;;;;26.36;100.00;101170.81;5052522;28;20056;-53
2021/07/17 11:50:47;;;;;;;0.13;0.00;;;;;;;26.41;100.00;101166.28;5053493;28;20064;-53
2021/07/17 11:53:55;;;;;;;0.10;0.00;;;;;;;26.51;100.00;101156.69;5053733;28;20544;-54
2021/07/17 11:57:10;;;;;;;1.25;0.20;;;;;;;26.30;100.00;101173.03;5053751;28;20508;-54
2021/07/17 12:00:15;;;;;;;2.65;0.55;;;;;;;26.11;100.00;101167.50;5053778;28;20064;-54
2021/07/17 12:03:18;;;;;;;0.47;0.08;;;;;;;26.32;100.00;101164.66;5052508;28;20059;-54
2021/07/17 12:06:25;;;;;;;7.25;0.40;;;;;;;26.50;100.00;101166.59;5053910;28;20528;-55
2021/07/17 12:09:43;;;;;;;2.22;0.28;;;;;;;26.61;100.00;101160.63;5053479;28;20078;-54
2021/07/17 12:12:52;;;;;;;0.68;0.00;;;;;;;26.37;100.00;101158.06;5053367;28;20056;-54
2021/07/17 12:15:55;;;;;;;0.20;0.00;;;;;;;26.57;100.00;101160.19;5052837;28;20065;-53
2021/07/17 12:19:05;;;;;;;1.40;0.20;;;;;;;26.72;100.00;101151.00;5065409;28;20111;-53
2021/07/17 12:22:08;;;;;;;0.55;0.10;;;;;;;26.80;100.00;101155.47;5064839;28;20055;-53
2021/07/17 12:25:17;;;;;;;0.10;0.08;;;;;;;27.01;100.00;101153.38;5061580;28;20457;-53
2021/07/17 12:28:24;;;;;;;1.17;0.00;;;;;;;27.12;100.00;101148.66;5052918;28;20064;-53
2021/07/17 12:31:28;;;;;;;0.20;0.10;;;;;;;27.17;100.00;101147.75;5063107;28;20496;-54
2021/07/17 12:34:32;;;;;;;2.40;0.10;;;;;;;27.36;100.00;101145.44;5055278;28;20072;-53
2021/07/17 12:37:35;;;;;;;1.95;0.10;;;;;;;27.54;100.00;101144.41;5062178;28;20051;-53
2021/07/17 12:41:07;;;;;;;7.80;0.28;;;;;;;27.62;100.00;101142.34;5056051;28;20059;-53
2021/07/17 12:44:10;;;;;;;1.10;0.20;;;;;;;27.45;100.00;101139.22;5064582;28;20519;-53
2021/07/17 12:47:14;;;;;;;0.80;0.30;;;;;;;27.49;100.00;101143.25;5064804;28;20557;-53
2021/07/17 12:50:25;;;;;;;0.57;0.00;;;;;;;27.39;100.00;101141.47;5063945;28;20091;-53
2021/07/17 12:53:29;;;;;;;1.23;0.05;;;;;;;27.45;100.00;101130.63;5054896;28;20048;-53
2021/07/17 12:56:36;;;;;;;0.80;0.10;;;;;;;27.69;100.00;101139.56;5062465;28;20075;-53
2021/07/17 12:59:43;;;;;;;0.47;0.17;;;;;;;27.27;100.00;101131.63;5056022;28;20511;-53
2021/07/17 13:02:46;;;;;;;4.10;0.85;;;;;;;27.38;100.00;101125.63;5060820;28;20060;-53
2021/07/17 13:05:52;;;;;;;1.17;0.00;;;;;;;27.47;100.00;101122.25;5052744;28;20060;-52
2021/07/17 13:09:01;;;;;;;0.50;0.10;;;;;;;27.75;100.00;101114.38;5064206;28;20535;-53
2021/07/17 13:12:08;;;;;;;0.63;0.10;;;;;;;28.03;100.00;101116.41;5060547;28;20063;-54
2021/07/17 13:15:14;;;;;;;0.38;0.10;;;;;;;27.90;100.00;101118.63;5052171;28;20056;-53
2021/07/17 13:18:23;;;;;;;1.75;0.00;;;;;;;27.69;100.00;101116.66;5051920;28;20064;-53
2021/07/17 13:21:37;;;;;;;0.60;0.08;;;;;;;27.59;100.00;101123.47;5062610;28;20063;-53
2021/07/17 13:24:43;;;;;;;2.55;0.55;;;;;;;27.48;100.00;101120.94;5052125;28;20056;-53
2021/07/17 13:27:47;;;;;;;2.65;0.05;;;;;;;27.45;100.00;101119.19;5051326;28;20710;-53
2021/07/17 13:30:50;;;;;;;1.52;0.10;;;;;;;27.49;100.00;101111.78;5050871;28;20409;-53
2021/07/17 13:34:10;;;;;;;1.85;0.00;;;;;;;27.62;100.00;101108.00;5052100;28;20075;-53
2021/07/17 13:37:14;;;;;;;;;;;;;;;27.74;100.00;101103.50;5052079;28;20056;-53
2021/07/17 13:40:28;;;;;;;4.95;0.10;;;;;;;28.00;100.00;101100.38;5049981;28;19921;-53
2021/07/17 13:43:32;;;;;;;1.27;0.00;;;;;;;28.08;100.00;101095.44;5049913;28;20056;-53
2021/07/17 13:46:36;;;;;;;0.63;0.32;;;;;;;28.23;100.00;101089.75;5060213;28;20048;-53
2021/07/17 13:49:44;;;;;;;1.23;0.00;;;;;;;28.30;100.00;101091.88;5049548;28;20429;-53
2021/07/17 13:53:10;;;;;;;0.52;0.10;;;;;;;28.24;100.00;101088.41;5049358;28;20056;-53
2021/07/17 13:56:13;;;;;;;3.25;0.10;;;;;;;28.38;100.00;101091.84;5049130;28;20072;-53
2021/07/17 13:59:28;;;;;;;0.75;0.00;;;;;;;28.35;100.00;101090.16;5050209;28;20060;-53
2021/07/17 14:02:32;;;;;;;0.17;0.00;;;;;;;28.30;100.00;101089.00;5051237;28;20052;-53
2021/07/17 14:05:35;;;;;;;3.30;0.00;;;;;;;28.29;100.00;101084.59;5050847;28;20051;-53
2021/07/17 14:08:41;;;;;;;1.73;0.50;;;;;;;27.75;100.00;101084.97;5050761;28;20386;-53
2021/07/17 14:11:44;;;;;;;0.85;0.20;;;;;;;27.61;100.00;101089.31;5050520;28;20060;-53